METAR Data
IDs: Format: Raw Decoded Include TAF

Data at: 1221 UTC 16 Jul 2019

KMLB 161153Z 00000KT 10SM CLR 28/25 A3011 RMK AO2 SLP197 T02830250 10289 20261 53010

KMLB 161124Z 1612/1712 00000KT P6SM BKN250
  FM161600 09009KT P6SM SCT040 SCT250
  FM170000 13006KT P6SM FEW040 SCT250


KTIX 161146Z 33003KT 7SM SCT100 A3013

KTIX 161124Z 1612/1712 16003KT P6SM BKN250
  FM161400 21004KT P6SM FEW030
  FM161600 10006KT P6SM SCT035
  FM162200 13009KT P6SM SCT030


KCOF 161156Z AUTO 14003KT 10SM CLR 28/27 A3012 RMK AO2 SLP204 T02840273 10284 20269 53011 $

TAF KCOF 161000Z 1610/1716 VRB06KT 9999 FEW200 QNH3004INS
  BECMG 1618/1619 11010KT 9999 SCT050 QNH3008INS
  BECMG 1621/1622 13008KT 9999 SKC QNH3006INS TX32/1618Z TN27/1709Z


KVRB 161153Z 00000KT 10SM CLR 28/26 A3011 RMK AO2 SLP195 T02830256 10283 20233 51011

KVRB 161124Z 1612/1712 04004KT P6SM SCT250
  FM161600 09009KT P6SM SCT040 SCT250
  FM170000 13006KT P6SM FEW040 SCT250